createdAt,value
2023-05-01T00:00:57.685Z,65.4
2023-05-01T00:01:57.674Z,64.6
2023-05-01T00:02:57.755Z,64.9
2023-05-01T00:04:57.718Z,65.3
2023-05-01T00:05:57.684Z,64.7
2023-05-01T00:06:57.679Z,64.7
2023-05-01T00:07:57.674Z,65.5
2023-05-01T00:08:57.672Z,65.8
2023-05-01T00:09:58.156Z,65.3
2023-05-01T00:10:57.666Z,63.9
2023-05-01T00:11:57.748Z,64.1
2023-05-01T00:12:57.670Z,64.2
2023-05-01T00:13:57.682Z,64.9
2023-05-01T00:14:57.678Z,65.8
2023-05-01T00:15:57.735Z,66.6
2023-05-01T00:16:57.906Z,65.9
2023-05-01T00:17:57.694Z,64.4
2023-05-01T00:18:57.676Z,64.4
2023-05-01T00:19:58.081Z,66.2
2023-05-01T00:20:57.651Z,65.9
2023-05-01T00:21:57.670Z,63.3
2023-05-01T00:22:57.706Z,63.7
2023-05-01T00:24:57.659Z,64.4
2023-05-01T00:25:57.664Z,66.1
2023-05-01T00:26:57.700Z,67
2023-05-01T00:27:57.663Z,64.9
2023-05-01T00:28:57.653Z,64.6
2023-05-01T00:29:58.036Z,63.5
2023-05-01T00:30:57.670Z,63.5
2023-05-01T00:31:57.707Z,63.8
2023-05-01T00:32:57.687Z,63
2023-05-01T00:33:57.687Z,62.7
2023-05-01T00:34:57.674Z,62.6
2023-05-01T00:35:57.672Z,62.2
2023-05-01T00:36:57.675Z,62
2023-05-01T00:37:57.671Z,62.3
2023-05-01T00:38:57.684Z,62.2
2023-05-01T00:39:58.148Z,61.8
2023-05-01T00:40:57.670Z,62
2023-05-01T00:41:57.672Z,62.4
2023-05-01T00:42:57.684Z,62.8
2023-05-01T00:43:57.673Z,62.3
2023-05-01T00:44:57.665Z,64.5
2023-05-01T00:45:57.757Z,62.6
2023-05-01T00:46:57.675Z,64.7
2023-05-01T00:47:57.690Z,62.1
2023-05-01T00:48:57.683Z,62.3
2023-05-01T00:49:57.919Z,63
2023-05-01T00:50:57.672Z,62.4
2023-05-01T00:51:57.681Z,62.4
2023-05-01T00:52:57.669Z,65.3
2023-05-01T00:53:57.683Z,63.4
2023-05-01T00:54:57.711Z,62.5
2023-05-01T00:56:57.713Z,64.8
2023-05-01T00:57:57.677Z,65.4
2023-05-01T00:58:57.699Z,65.9
2023-05-01T00:59:57.899Z,66
2023-05-01T01:00:57.722Z,65.8
2023-05-01T01:01:57.742Z,65.4
2023-05-01T01:02:57.717Z,66.6
2023-05-01T01:03:57.730Z,66.4
2023-05-01T01:04:57.893Z,66.5
2023-05-01T01:05:57.724Z,66.1
2023-05-01T01:06:57.680Z,66.7
2023-05-01T01:07:57.675Z,66.6
2023-05-01T01:08:57.685Z,67.2
2023-05-01T01:09:58.025Z,67
2023-05-01T01:10:57.666Z,67.5
2023-05-01T01:11:57.672Z,66.6
2023-05-01T01:12:57.688Z,67
2023-05-01T01:13:57.684Z,67.1
2023-05-01T01:14:57.669Z,67.8
2023-05-01T01:15:57.684Z,68.2
2023-05-01T01:16:57.744Z,68.4
2023-05-01T01:17:57.794Z,68.7
2023-05-01T01:18:57.666Z,69.2
2023-05-01T01:19:57.968Z,69.3
2023-05-01T01:20:57.694Z,70.1
2023-05-01T01:21:57.670Z,68.1
2023-05-01T01:22:57.707Z,68.5
2023-05-01T01:23:57.689Z,68.2
2023-05-01T01:24:57.671Z,66.7
2023-05-01T01:25:57.667Z,67.3
2023-05-01T01:26:57.678Z,68.9
2023-05-01T01:27:57.791Z,68.5
2023-05-01T01:28:57.673Z,68.5
2023-05-01T01:29:57.981Z,68.3
2023-05-01T01:30:57.777Z,68.1
2023-05-01T01:31:57.721Z,67.5
2023-05-01T01:32:57.749Z,68.4
2023-05-01T01:33:57.672Z,68.5
2023-05-01T01:34:57.674Z,68.6
2023-05-01T01:35:57.718Z,68.6
2023-05-01T01:36:57.676Z,68.5
2023-05-01T01:37:57.687Z,68.5
2023-05-01T01:38:57.731Z,68.4
2023-05-01T01:39:58.007Z,68.5
2023-05-01T01:40:57.673Z,67.6
2023-05-01T01:41:57.724Z,67.7
2023-05-01T01:42:57.712Z,67
2023-05-01T01:43:57.678Z,65.9
2023-05-01T01:44:57.685Z,65.5
2023-05-01T01:45:57.712Z,66.2
2023-05-01T01:46:57.693Z,67.5
2023-05-01T01:47:57.765Z,67.1
2023-05-01T01:48:57.685Z,66.8
2023-05-01T01:49:57.963Z,66.2
2023-05-01T01:50:57.668Z,65.8
2023-05-01T01:51:57.689Z,65.1
2023-05-01T01:52:57.690Z,65.5
2023-05-01T01:53:57.690Z,66.9
2023-05-01T01:54:57.756Z,68
2023-05-01T01:55:57.698Z,68.4
2023-05-01T01:56:57.693Z,69.2
2023-05-01T01:57:57.705Z,69.5
2023-05-01T01:58:57.692Z,70
2023-05-01T01:59:57.912Z,69.9
2023-05-01T02:00:57.684Z,69.6
2023-05-01T02:01:57.797Z,70.8
2023-05-01T02:02:57.725Z,71.5
2023-05-01T02:03:57.783Z,71
2023-05-01T02:04:57.679Z,71.9
2023-05-01T02:05:57.700Z,71.7
2023-05-01T02:06:57.717Z,70.8
2023-05-01T02:07:57.690Z,70.9
2023-05-01T02:08:57.677Z,70.2
2023-05-01T02:09:57.894Z,70.4
2023-05-01T02:10:59.210Z,70.7
2023-05-01T02:11:57.669Z,71.6
2023-05-01T02:12:57.679Z,72
2023-05-01T02:13:57.693Z,72.5
2023-05-01T02:14:57.718Z,72.7
2023-05-01T02:15:57.743Z,73.3
2023-05-01T02:16:57.685Z,74.2
2023-05-01T02:17:57.743Z,74.8
2023-05-01T02:18:57.695Z,74.8
2023-05-01T02:19:57.920Z,74.9
2023-05-01T02:20:57.696Z,74.9
2023-05-01T02:21:57.703Z,75
2023-05-01T02:22:57.687Z,74.9
2023-05-01T02:23:57.689Z,74.8
2023-05-01T02:24:57.717Z,75
2023-05-01T02:25:57.679Z,74.9
2023-05-01T02:26:57.685Z,75.7
2023-05-01T02:27:57.705Z,76.7
2023-05-01T02:28:57.709Z,77.2
2023-05-01T02:29:57.985Z,78
2023-05-01T02:30:57.669Z,78.6
2023-05-01T02:31:57.735Z,79.2
2023-05-01T02:32:57.776Z,79.8
2023-05-01T02:33:57.697Z,80.1
2023-05-01T02:34:57.735Z,79.8
2023-05-01T02:35:57.678Z,79.8
2023-05-01T02:36:57.686Z,80.3
2023-05-01T02:37:57.705Z,80.8
2023-05-01T02:38:57.701Z,81.1
2023-05-01T02:39:57.961Z,81.2
2023-05-01T02:40:57.727Z,81.2
2023-05-01T02:41:57.684Z,81.2
2023-05-01T02:42:57.690Z,80.8
2023-05-01T02:43:57.704Z,81
2023-05-01T02:44:57.723Z,81.2
2023-05-01T02:45:57.747Z,80.6
2023-05-01T02:46:57.683Z,79.9
2023-05-01T02:47:57.783Z,80
2023-05-01T02:48:57.709Z,79.9
2023-05-01T02:49:58.015Z,80.1
2023-05-01T02:50:57.742Z,79.7
2023-05-01T02:51:57.689Z,79.5
2023-05-01T02:52:57.707Z,79.2
2023-05-01T02:53:57.672Z,80
2023-05-01T02:54:57.680Z,80.4
2023-05-01T02:55:57.695Z,80.2
2023-05-01T02:56:57.686Z,80.1
2023-05-01T02:57:57.677Z,80.1
2023-05-01T02:58:57.683Z,80.3
2023-05-01T02:59:58.046Z,80.5
2023-05-01T03:00:57.717Z,80.6
2023-05-01T03:01:57.693Z,80.6
2023-05-01T03:02:57.748Z,80.6
2023-05-01T03:03:57.723Z,80.8
2023-05-01T03:04:57.715Z,81.1
2023-05-01T03:05:57.767Z,81.2
2023-05-01T03:06:57.682Z,81.1
2023-05-01T03:07:57.692Z,81.5
2023-05-01T03:08:57.687Z,81.4
2023-05-01T03:09:57.922Z,81.7
2023-05-01T03:10:57.677Z,81.8
2023-05-01T03:11:57.684Z,81.9
2023-05-01T03:12:57.696Z,82
2023-05-01T03:13:57.721Z,81.9
2023-05-01T03:14:57.722Z,82.1
2023-05-01T03:15:57.743Z,82.5
2023-05-01T03:16:57.731Z,82.5
2023-05-01T03:17:57.708Z,82.8
2023-05-01T03:18:57.682Z,82.8
2023-05-01T03:19:57.966Z,82.7
2023-05-01T03:20:57.688Z,82.7
2023-05-01T03:21:57.750Z,82.7
2023-05-01T03:22:57.705Z,82.8
2023-05-01T03:23:57.695Z,82.9
2023-05-01T03:24:57.697Z,82.4
2023-05-01T03:25:57.680Z,81.9
2023-05-01T03:26:57.684Z,81.6
2023-05-01T03:27:57.701Z,80.9
2023-05-01T03:28:57.688Z,81
2023-05-01T03:29:57.867Z,81.3
2023-05-01T03:30:57.709Z,81.8
2023-05-01T03:31:57.781Z,81
2023-05-01T03:32:57.695Z,80.6
2023-05-01T03:33:57.707Z,80.2
2023-05-01T03:34:57.916Z,80.7
2023-05-01T03:36:57.675Z,81.1
2023-05-01T03:37:57.691Z,80.5
2023-05-01T03:38:57.680Z,80.7
2023-05-01T03:39:57.977Z,80.4
2023-05-01T03:40:57.696Z,79.7
2023-05-01T03:41:57.720Z,80.1
2023-05-01T03:42:57.681Z,80.1
2023-05-01T03:43:57.686Z,79.7
2023-05-01T03:44:57.676Z,79.5
2023-05-01T03:45:57.722Z,79.2
2023-05-01T03:46:57.682Z,79.3
2023-05-01T03:47:57.763Z,79.5
2023-05-01T03:48:57.719Z,79.9
2023-05-01T03:49:57.918Z,79.9
2023-05-01T03:50:57.705Z,80.2
2023-05-01T03:51:57.696Z,80.2
2023-05-01T03:52:57.727Z,80
2023-05-01T03:54:57.694Z,80.9
2023-05-01T03:55:57.690Z,80.8
2023-05-01T03:56:57.695Z,81.4
2023-05-01T03:57:57.699Z,81.4
2023-05-01T03:58:57.687Z,82.1
2023-05-01T03:59:57.845Z,82.1
2023-05-01T04:00:57.704Z,82.2
2023-05-01T04:01:57.754Z,82.6
2023-05-01T04:02:57.957Z,82.7
2023-05-01T04:03:57.760Z,82.6
2023-05-01T04:04:57.689Z,82.9
2023-05-01T04:05:57.756Z,83.3
2023-05-01T04:06:57.690Z,83.3
2023-05-01T04:07:57.718Z,83.6
2023-05-01T04:08:57.705Z,83.5
2023-05-01T04:09:57.909Z,83.4
2023-05-01T04:10:57.678Z,83.4
2023-05-01T04:11:57.703Z,83.3
2023-05-01T04:12:57.740Z,83.6
2023-05-01T04:13:57.704Z,82.8
2023-05-01T04:14:57.702Z,83.1
2023-05-01T04:15:57.774Z,83.3
2023-05-01T04:16:57.710Z,83.4
2023-05-01T04:17:57.889Z,83.6
2023-05-01T04:18:57.703Z,83.9
2023-05-01T04:19:58.183Z,83.9
2023-05-01T04:20:57.681Z,84
2023-05-01T04:21:57.700Z,84
2023-05-01T04:22:57.859Z,84.2
2023-05-01T04:23:57.685Z,83.8
2023-05-01T04:24:57.715Z,83.8
2023-05-01T04:25:57.715Z,84
2023-05-01T04:26:57.718Z,84.4
2023-05-01T04:27:57.707Z,84.7
2023-05-01T04:28:57.715Z,84.8
2023-05-01T04:29:58.273Z,85.2
2023-05-01T04:30:57.733Z,84.6
2023-05-01T04:31:57.915Z,84.2
2023-05-01T04:32:57.718Z,83.9
2023-05-01T04:33:57.709Z,84.2
2023-05-01T04:34:57.944Z,84.4
2023-05-01T04:35:57.687Z,84.3
2023-05-01T04:36:57.694Z,84.3
2023-05-01T04:37:57.711Z,84.6
2023-05-01T04:38:57.731Z,83.9
2023-05-01T04:39:58.054Z,82.9
2023-05-01T04:40:57.723Z,81.7
2023-05-01T04:41:57.680Z,81.3
2023-05-01T04:42:57.684Z,81.2
2023-05-01T04:43:57.702Z,80.6
2023-05-01T04:44:57.694Z,81.3
2023-05-01T04:45:57.686Z,81.4
2023-05-01T04:46:57.702Z,80.7
2023-05-01T04:47:57.749Z,80.7
2023-05-01T04:48:57.701Z,79.1
2023-05-01T04:49:57.946Z,79.4
2023-05-01T04:50:57.684Z,79.3
2023-05-01T04:51:57.694Z,78.1
2023-05-01T04:52:57.711Z,78.5
2023-05-01T04:53:57.700Z,79
2023-05-01T04:54:57.737Z,79
2023-05-01T04:55:57.699Z,79
2023-05-01T04:56:57.709Z,78.9
2023-05-01T04:57:57.717Z,78.3
2023-05-01T04:58:57.702Z,77.5
2023-05-01T04:59:58.063Z,76.6
2023-05-01T05:00:57.717Z,76.3
2023-05-01T05:01:57.760Z,75.9
2023-05-01T05:02:57.759Z,76.3
2023-05-01T05:03:57.758Z,76.2
2023-05-01T05:04:57.722Z,76
2023-05-01T05:06:57.703Z,76.2
2023-05-01T05:07:57.691Z,76.7
2023-05-01T05:08:57.709Z,76.8
2023-05-01T05:09:57.957Z,77.4
2023-05-01T05:10:57.695Z,77.5
2023-05-01T05:11:57.688Z,76
2023-05-01T05:12:57.708Z,75.7
2023-05-01T05:13:57.689Z,75.1
2023-05-01T05:14:57.779Z,74.7
2023-05-01T05:15:57.739Z,74.8
2023-05-01T05:16:58.321Z,74.9
2023-05-01T05:17:57.748Z,75.3
2023-05-01T05:18:57.731Z,74.7
2023-05-01T05:19:57.870Z,74.4
2023-05-01T05:20:57.695Z,74.1
2023-05-01T05:21:57.702Z,74.5
2023-05-01T05:22:57.717Z,74.1
2023-05-01T05:23:57.712Z,73.6
2023-05-01T05:24:57.690Z,73.4
2023-05-01T05:25:57.728Z,74.2
2023-05-01T05:26:57.718Z,74.3
2023-05-01T05:27:57.695Z,74.3
2023-05-01T05:28:57.706Z,73.6
2023-05-01T05:29:57.883Z,73.7
2023-05-01T05:30:57.700Z,73.8
2023-05-01T05:31:57.714Z,73.6
2023-05-01T05:32:57.752Z,73.1
2023-05-01T05:33:57.707Z,73.1
2023-05-01T05:34:57.711Z,72.6
2023-05-01T05:36:57.714Z,72.6
2023-05-01T05:37:57.715Z,72.3
2023-05-01T05:38:57.706Z,72.3
2023-05-01T05:39:57.949Z,72.7
2023-05-01T05:40:57.704Z,72.5
2023-05-01T05:41:57.734Z,72
2023-05-01T05:42:57.697Z,71.9
2023-05-01T05:43:57.686Z,72.1
2023-05-01T05:44:57.693Z,72.1
2023-05-01T05:45:57.754Z,71.5
2023-05-01T05:46:57.705Z,71.8
2023-05-01T05:47:57.721Z,72
2023-05-01T05:48:57.708Z,71.9
2023-05-01T05:49:58.083Z,72.4
2023-05-01T05:50:57.700Z,72.6
2023-05-01T05:51:57.748Z,72
2023-05-01T05:52:57.732Z,71.4
2023-05-01T05:53:57.698Z,71.4
2023-05-01T05:54:57.707Z,71.7
2023-05-01T05:55:57.720Z,71.5
2023-05-01T05:56:57.792Z,71.3
2023-05-01T05:57:57.710Z,70.3
2023-05-01T05:58:57.688Z,70.7
2023-05-01T05:59:58.138Z,70.5
2023-05-01T06:00:57.697Z,69.6
2023-05-01T06:01:57.761Z,69
2023-05-01T06:02:57.744Z,69.1
2023-05-01T06:03:57.727Z,69.3
2023-05-01T06:04:57.792Z,69.8
2023-05-01T06:05:57.768Z,68.4
2023-05-01T06:06:58.096Z,68.7
2023-05-01T06:07:57.726Z,69.2
2023-05-01T06:08:57.718Z,69.4
2023-05-01T06:09:57.952Z,69.8
2023-05-01T06:10:57.720Z,68.6
2023-05-01T06:11:57.724Z,68.1
2023-05-01T06:13:57.705Z,67.3
2023-05-01T06:14:57.717Z,67.3
2023-05-01T06:15:57.707Z,67.3
2023-05-01T06:16:57.720Z,67.9
2023-05-01T06:18:57.703Z,68
2023-05-01T06:19:58.001Z,67.8
2023-05-01T06:20:57.721Z,66.7
2023-05-01T06:21:57.738Z,66.4
2023-05-01T06:22:57.765Z,66.4
2023-05-01T06:23:57.711Z,66.6
2023-05-01T06:24:57.715Z,65.3
2023-05-01T06:25:57.759Z,66.8
2023-05-01T06:26:58.689Z,67.5
2023-05-01T06:27:57.701Z,67.9
2023-05-01T06:28:57.717Z,68.2
2023-05-01T06:29:57.906Z,66.7
2023-05-01T06:30:57.843Z,66.6
2023-05-01T06:31:57.934Z,66.5
2023-05-01T06:32:57.813Z,66.7
2023-05-01T06:33:57.707Z,66.1
2023-05-01T06:34:57.717Z,66.4
2023-05-01T06:35:57.711Z,66
2023-05-01T06:36:57.712Z,66.8
2023-05-01T06:37:57.709Z,67.2
2023-05-01T06:38:57.708Z,67.3
2023-05-01T06:39:58.087Z,67.9
2023-05-01T06:40:57.707Z,66.7
2023-05-01T06:41:57.716Z,66.3
2023-05-01T06:42:57.734Z,67.1
2023-05-01T06:43:57.710Z,67.4
2023-05-01T06:44:57.733Z,67.1
2023-05-01T06:45:57.723Z,67.6
2023-05-01T06:46:57.781Z,67.4
2023-05-01T06:47:57.720Z,67
2023-05-01T06:48:57.722Z,67.5
2023-05-01T06:49:58.031Z,66.9
2023-05-01T06:50:57.725Z,67
2023-05-01T06:51:57.690Z,66.9
2023-05-01T06:52:57.701Z,66.1
2023-05-01T06:53:57.732Z,66.5
2023-05-01T06:54:57.708Z,67
2023-05-01T06:55:57.714Z,67.2
2023-05-01T06:56:57.701Z,67
2023-05-01T06:57:57.720Z,67.5
2023-05-01T06:58:57.716Z,67.7
2023-05-01T06:59:58.036Z,67.1
2023-05-01T07:00:57.758Z,66.5
2023-05-01T07:01:57.781Z,66.7
2023-05-01T07:02:57.854Z,67.3
2023-05-01T07:03:57.704Z,66.3
2023-05-01T07:04:57.716Z,66.6
2023-05-01T07:05:57.780Z,65.9
2023-05-01T07:06:57.703Z,66.3
2023-05-01T07:08:01.257Z,66.8
2023-05-01T07:08:57.722Z,66.1
2023-05-01T07:09:58.200Z,65.5
2023-05-01T07:10:57.716Z,65.4
2023-05-01T07:11:57.726Z,65.5
2023-05-01T07:12:57.721Z,64.3
2023-05-01T07:13:57.721Z,64.4
2023-05-01T07:14:57.706Z,65.2
2023-05-01T07:15:57.741Z,65.9
2023-05-01T07:16:57.782Z,66.1
2023-05-01T07:17:57.772Z,65.8
2023-05-01T07:18:57.761Z,65.3
2023-05-01T07:19:58.003Z,65.8
2023-05-01T07:20:57.731Z,65.1
2023-05-01T07:21:57.719Z,64.6
2023-05-01T07:22:57.726Z,64.8
2023-05-01T07:23:57.717Z,65.4
2023-05-01T07:24:57.709Z,64.2
2023-05-01T07:25:57.727Z,63.7
2023-05-01T07:26:57.719Z,63.5
2023-05-01T07:27:57.717Z,63.8
2023-05-01T07:28:57.701Z,63.6
2023-05-01T07:29:58.109Z,63.5
2023-05-01T07:30:57.750Z,63.5
2023-05-01T07:31:57.783Z,63.2
2023-05-01T07:32:57.781Z,62.8
2023-05-01T07:33:57.723Z,63.4
2023-05-01T07:34:57.740Z,62.3
2023-05-01T07:36:57.744Z,61.1
2023-05-01T07:37:57.717Z,61.8
2023-05-01T07:38:57.717Z,62.3
2023-05-01T07:39:57.854Z,62.5
2023-05-01T07:40:57.720Z,60.4
2023-05-01T07:41:57.730Z,60.6
2023-05-01T07:42:57.713Z,60.1
2023-05-01T07:43:57.733Z,59.9
2023-05-01T07:44:57.717Z,59.1
2023-05-01T07:45:57.795Z,60
2023-05-01T07:46:57.725Z,58.2
2023-05-01T07:47:57.831Z,56.7
2023-05-01T07:48:57.728Z,58.4
2023-05-01T07:49:57.807Z,58.6
2023-05-01T07:50:57.718Z,57.5
2023-05-01T07:51:57.714Z,57.8
2023-05-01T07:52:57.726Z,56.9
2023-05-01T07:54:57.708Z,55.4
2023-05-01T07:55:57.718Z,56.1
2023-05-01T07:56:57.744Z,55.8
2023-05-01T07:57:57.716Z,55.6
2023-05-01T07:58:57.704Z,55.5
2023-05-01T07:59:58.215Z,56.1
2023-05-01T08:00:57.735Z,56.5
2023-05-01T08:01:57.759Z,56.6
2023-05-01T08:02:57.791Z,56.7
2023-05-01T08:03:57.780Z,56.4
2023-05-01T08:04:57.865Z,55.2
2023-05-01T08:05:57.938Z,55.6
2023-05-01T08:06:57.779Z,55.2
2023-05-01T08:07:57.728Z,55.8
2023-05-01T08:08:57.712Z,56.4
2023-05-01T08:10:00.005Z,56.5
2023-05-01T08:10:57.746Z,55.5
2023-05-01T08:11:57.770Z,54.8
2023-05-01T08:12:57.732Z,55.6
2023-05-01T08:13:57.720Z,56.6
2023-05-01T08:14:57.743Z,54.3
2023-05-01T08:15:57.755Z,55.5
2023-05-01T08:16:57.714Z,55.4
2023-05-01T08:17:57.768Z,55.8
2023-05-01T08:18:57.738Z,55.8
2023-05-01T08:19:57.915Z,55.4
2023-05-01T08:20:57.727Z,54.9
2023-05-01T08:21:57.745Z,55
2023-05-01T08:22:57.736Z,54.9
2023-05-01T08:23:57.749Z,53.3
2023-05-01T08:24:57.719Z,54.4
2023-05-01T08:25:57.728Z,53.4
2023-05-01T08:26:57.752Z,53.3
2023-05-01T08:27:57.716Z,53.3
2023-05-01T08:28:57.726Z,54.4
2023-05-01T08:29:57.922Z,54.2
2023-05-01T08:31:57.899Z,55
2023-05-01T08:32:57.809Z,53.9
2023-05-01T08:33:57.749Z,53.9
2023-05-01T08:34:57.719Z,54.4
2023-05-01T08:35:57.719Z,53.4
2023-05-01T08:36:57.720Z,52.1
2023-05-01T08:37:57.778Z,51.6
2023-05-01T08:38:57.731Z,51.5
2023-05-01T08:39:57.983Z,52.7
2023-05-01T08:40:57.734Z,52.5
2023-05-01T08:41:57.737Z,52.5
2023-05-01T08:42:57.735Z,52.7
2023-05-01T08:43:57.749Z,52.8
2023-05-01T08:44:57.985Z,52.2
2023-05-01T08:45:57.729Z,52.1
2023-05-01T08:46:57.878Z,52.3
2023-05-01T08:47:57.739Z,52.3
2023-05-01T08:48:57.712Z,53
2023-05-01T08:49:57.915Z,52.6
2023-05-01T08:50:57.736Z,53
2023-05-01T08:51:57.720Z,52.3
2023-05-01T08:52:57.720Z,52.6
2023-05-01T08:53:57.793Z,53.2
2023-05-01T08:54:57.730Z,52.9
2023-05-01T08:55:57.726Z,52.6
2023-05-01T08:56:57.886Z,52.6
2023-05-01T08:57:57.731Z,53.5
2023-05-01T08:58:57.725Z,53.1
2023-05-01T08:59:57.892Z,53
2023-05-01T09:00:57.772Z,53.7
2023-05-01T09:01:57.999Z,52.9
2023-05-01T09:02:57.787Z,52.8
2023-05-01T09:03:57.769Z,52.7
2023-05-01T09:04:58.122Z,53
2023-05-01T09:05:57.754Z,52.9
2023-05-01T09:06:57.741Z,53.7
2023-05-01T09:07:57.741Z,53.9
2023-05-01T09:08:57.722Z,53.8
2023-05-01T09:09:58.003Z,52.9
2023-05-01T09:10:57.740Z,53
2023-05-01T09:11:57.899Z,53.7
2023-05-01T09:12:57.763Z,54.5
2023-05-01T09:13:57.747Z,53
2023-05-01T09:14:57.757Z,53.5
2023-05-01T09:15:57.762Z,53.7
2023-05-01T09:16:57.790Z,53.9
2023-05-01T09:17:58.750Z,53
2023-05-01T09:18:57.719Z,52.7
2023-05-01T09:19:58.054Z,53.9
2023-05-01T09:20:57.746Z,53.5
2023-05-01T09:21:57.735Z,54.2
2023-05-01T09:22:57.730Z,54
2023-05-01T09:23:57.730Z,53.6
2023-05-01T09:24:57.812Z,53.9
2023-05-01T09:25:57.731Z,53.4
2023-05-01T09:26:57.720Z,53.8
2023-05-01T09:27:57.745Z,53.6
2023-05-01T09:28:57.743Z,53.5
2023-05-01T09:29:58.037Z,53.6
2023-05-01T09:30:57.740Z,53
2023-05-01T09:31:57.840Z,52.7
2023-05-01T09:32:57.743Z,52.4
2023-05-01T09:33:57.723Z,51.4
2023-05-01T09:34:57.743Z,51.7
2023-05-01T09:35:57.742Z,51.5
2023-05-01T09:36:57.739Z,51.7
2023-05-01T09:37:57.743Z,51.8
2023-05-01T09:38:57.742Z,51
2023-05-01T09:39:58.028Z,50.1
2023-05-01T09:40:57.751Z,51
2023-05-01T09:41:57.756Z,52.1
2023-05-01T09:42:57.744Z,51.4
2023-05-01T09:43:57.771Z,50
2023-05-01T09:44:57.762Z,49.5
2023-05-01T09:45:57.822Z,50.2
2023-05-01T09:46:57.743Z,49.3
2023-05-01T09:47:57.774Z,49.3
2023-05-01T09:48:57.777Z,49.4
2023-05-01T09:49:58.076Z,50.5
2023-05-01T09:50:57.734Z,51.3
2023-05-01T09:51:57.740Z,50.6
2023-05-01T09:52:57.806Z,50.5
2023-05-01T09:53:57.839Z,50.6
2023-05-01T09:54:57.736Z,50.6
2023-05-01T09:55:57.758Z,50.9
2023-05-01T09:56:57.727Z,49.3
2023-05-01T09:57:57.749Z,49.8
2023-05-01T09:58:57.755Z,49.3
2023-05-01T09:59:57.993Z,50.1
2023-05-01T10:00:57.801Z,49.4
2023-05-01T10:01:57.806Z,50.2
2023-05-01T10:02:57.966Z,50.3
2023-05-01T10:03:57.823Z,50
2023-05-01T10:04:57.751Z,49.1
2023-05-01T10:05:57.807Z,48.9
2023-05-01T10:06:57.909Z,49.2
2023-05-01T10:07:57.754Z,49.6
2023-05-01T10:08:57.750Z,50.5
2023-05-01T10:10:00.022Z,49.3
2023-05-01T10:10:57.774Z,50
2023-05-01T10:11:58.150Z,49.2
2023-05-01T10:12:57.852Z,49.4
2023-05-01T10:13:57.750Z,48.6
2023-05-01T10:14:57.851Z,48.8
2023-05-01T10:15:57.875Z,48.7
2023-05-01T10:16:58.265Z,48.5
2023-05-01T10:17:58.067Z,48.5
2023-05-01T10:18:58.113Z,48.3
2023-05-01T10:19:58.017Z,47.6
2023-05-01T10:20:57.752Z,47.9
2023-05-01T10:21:57.790Z,49.9
2023-05-01T10:22:57.744Z,47.4
2023-05-01T10:23:57.756Z,48.4
2023-05-01T10:24:57.772Z,47
2023-05-01T10:25:57.762Z,47.4
2023-05-01T10:26:57.780Z,47.5
2023-05-01T10:27:57.797Z,47.1
2023-05-01T10:28:57.786Z,47
2023-05-01T10:29:58.181Z,46.7
2023-05-01T10:30:57.794Z,46.8
2023-05-01T10:31:57.835Z,47.1
2023-05-01T10:32:57.893Z,47.5
2023-05-01T10:33:57.750Z,46.2
2023-05-01T10:34:58.053Z,45
2023-05-01T10:35:57.775Z,44.5
2023-05-01T10:36:57.758Z,43.6
2023-05-01T10:37:57.916Z,45.3
2023-05-01T10:38:57.757Z,46.5
2023-05-01T10:39:57.789Z,46.3
2023-05-01T10:40:57.740Z,45.5
2023-05-01T10:41:57.751Z,45.7
2023-05-01T10:42:57.782Z,44.7
2023-05-01T10:43:57.734Z,45.5
2023-05-01T10:44:58.111Z,45.6
2023-05-01T10:45:57.795Z,45
2023-05-01T10:46:58.121Z,44.6
2023-05-01T10:47:57.772Z,44.8
2023-05-01T10:48:57.748Z,44.3
2023-05-01T10:49:57.767Z,42.8
2023-05-01T10:50:57.766Z,43.9
2023-05-01T10:51:57.765Z,45.1
2023-05-01T10:52:57.747Z,45.2
2023-05-01T10:53:57.769Z,45.7
2023-05-01T10:54:57.981Z,45.4
2023-05-01T10:55:57.741Z,46.7
2023-05-01T10:56:57.747Z,45.3
2023-05-01T10:57:57.766Z,46
2023-05-01T10:58:57.742Z,45
2023-05-01T10:59:57.774Z,44.3
2023-05-01T11:00:57.748Z,44.7
2023-05-01T11:01:57.808Z,44.5
2023-05-01T11:02:57.836Z,44.2
2023-05-01T11:03:57.773Z,44.2
2023-05-01T11:04:58.138Z,45.9
2023-05-01T11:05:57.881Z,44.9
2023-05-01T11:06:57.765Z,43.8
2023-05-01T11:07:57.757Z,44.4
2023-05-01T11:08:57.747Z,45.1
2023-05-01T11:09:57.769Z,45.4
2023-05-01T11:10:57.775Z,44.6
2023-05-01T11:11:57.754Z,43.9
2023-05-01T11:12:57.771Z,42.8
2023-05-01T11:13:57.757Z,43.4
2023-05-01T11:14:58.223Z,43.2
2023-05-01T11:15:57.780Z,43.4
2023-05-01T11:16:57.760Z,44.1
2023-05-01T11:17:57.813Z,45.4
2023-05-01T11:18:57.791Z,44.3
2023-05-01T11:19:57.749Z,44.1
2023-05-01T11:20:57.789Z,44.4
2023-05-01T11:21:57.765Z,44.1
2023-05-01T11:22:57.756Z,44.7
2023-05-01T11:23:57.808Z,43.2
2023-05-01T11:24:58.026Z,44.2
2023-05-01T11:25:57.770Z,43.6
2023-05-01T11:26:57.772Z,44.6
2023-05-01T11:27:57.801Z,44.1
2023-05-01T11:28:57.777Z,44.3
2023-05-01T11:29:57.766Z,45
2023-05-01T11:30:57.779Z,45.6
2023-05-01T11:31:57.853Z,46
2023-05-01T11:32:57.828Z,45.5
2023-05-01T11:33:57.753Z,45.9
2023-05-01T11:34:58.083Z,46.5
2023-05-01T11:35:57.830Z,46.5
2023-05-01T11:36:57.762Z,46.1
2023-05-01T11:37:57.820Z,45.3
2023-05-01T11:38:57.783Z,44.4
2023-05-01T11:39:57.771Z,44.9
2023-05-01T11:40:57.786Z,44.5
2023-05-01T11:41:57.825Z,44.4
2023-05-01T11:42:57.787Z,44.2
2023-05-01T11:43:57.798Z,44.6
2023-05-01T11:44:58.160Z,45.2
2023-05-01T11:45:57.817Z,46
2023-05-01T11:46:57.776Z,45.7
2023-05-01T11:47:57.882Z,44.9
2023-05-01T11:48:57.777Z,44.2
2023-05-01T11:49:57.761Z,44.1
2023-05-01T11:50:57.780Z,44.2
2023-05-01T11:51:57.763Z,44.2
2023-05-01T11:52:57.772Z,44.5
2023-05-01T11:53:57.812Z,44.3
2023-05-01T11:54:57.829Z,44.6
2023-05-01T11:55:57.754Z,44.3
2023-05-01T11:56:57.772Z,44.8
2023-05-01T11:57:57.821Z,44.9
2023-05-01T11:58:57.794Z,44.5
2023-05-01T11:59:57.790Z,46
2023-05-01T12:00:57.834Z,46.4
2023-05-01T12:01:57.853Z,45.3
2023-05-01T12:02:57.897Z,43.4
2023-05-01T12:03:57.886Z,42
2023-05-01T12:04:57.977Z,42.8
2023-05-01T12:05:57.832Z,43.2
2023-05-01T12:06:57.783Z,43.5
2023-05-01T12:07:57.781Z,43.7
2023-05-01T12:08:57.777Z,43.8
2023-05-01T12:09:57.763Z,42.4
2023-05-01T12:10:57.770Z,43.8
2023-05-01T12:11:57.778Z,42.9
2023-05-01T12:12:57.772Z,43.6
2023-05-01T12:13:57.769Z,42.5
2023-05-01T12:14:58.167Z,42.4
2023-05-01T12:15:57.800Z,42.3
2023-05-01T12:16:57.867Z,41.7
2023-05-01T12:17:57.856Z,41.8
2023-05-01T12:18:57.940Z,41.6
2023-05-01T12:19:57.882Z,42.7
2023-05-01T12:21:57.831Z,41.4
2023-05-01T12:22:57.846Z,42.4
2023-05-01T12:23:57.783Z,40.3
2023-05-01T12:24:58.028Z,41
2023-05-01T12:25:57.775Z,41.8
2023-05-01T12:26:57.839Z,41.5
2023-05-01T12:27:57.779Z,38.2
2023-05-01T12:28:57.778Z,38.9
2023-05-01T12:29:57.953Z,39.6
2023-05-01T12:30:57.780Z,41.2
2023-05-01T12:31:57.826Z,41.3
2023-05-01T12:33:57.797Z,40.1
2023-05-01T12:34:58.049Z,39.7
2023-05-01T12:35:57.820Z,39.6
2023-05-01T12:36:57.817Z,40.7
2023-05-01T12:37:57.782Z,39.5
2023-05-01T12:38:57.782Z,39.9
2023-05-01T12:39:57.792Z,38
2023-05-01T12:41:57.774Z,38.4
2023-05-01T12:42:57.785Z,40.2
2023-05-01T12:43:57.816Z,37.5
2023-05-01T12:44:58.253Z,39.1
2023-05-01T12:45:57.850Z,39.5
2023-05-01T12:46:57.838Z,38.2
2023-05-01T12:47:57.793Z,38.3
2023-05-01T12:48:57.791Z,39.1
2023-05-01T12:49:58.028Z,39.3
2023-05-01T12:50:57.774Z,39.9
2023-05-01T12:51:57.777Z,38.3
2023-05-01T12:52:57.796Z,37.4
2023-05-01T12:54:57.983Z,36.8
2023-05-01T12:55:57.806Z,35.6
2023-05-01T12:56:57.793Z,37.3
2023-05-01T12:57:57.790Z,37
2023-05-01T12:58:57.806Z,37.3
2023-05-01T13:00:57.870Z,36.9
2023-05-01T13:01:57.952Z,38.1
2023-05-01T13:02:57.840Z,38.2
2023-05-01T13:03:58.112Z,38.9
2023-05-01T13:04:57.805Z,39.4
2023-05-01T13:05:57.906Z,41.2
2023-05-01T13:06:57.803Z,39.8
2023-05-01T13:07:57.813Z,37.5
2023-05-01T13:08:57.809Z,37.4
2023-05-01T13:09:58.088Z,37.2
2023-05-01T13:10:57.786Z,37
2023-05-01T13:11:57.777Z,37.9
2023-05-01T13:12:57.801Z,38.5
2023-05-01T13:13:57.799Z,39.7
2023-05-01T13:14:57.780Z,39.2
2023-05-01T13:15:57.863Z,39.7
2023-05-01T13:16:57.797Z,37.9
2023-05-01T13:17:57.860Z,37.4
2023-05-01T13:18:57.793Z,37.5
2023-05-01T13:19:58.208Z,36.2
2023-05-01T13:20:57.808Z,35.7
2023-05-01T13:21:57.812Z,35
2023-05-01T13:22:57.807Z,35.1
2023-05-01T13:23:57.784Z,36.2
2023-05-01T13:24:57.817Z,36.8
2023-05-01T13:25:57.791Z,35.2
2023-05-01T13:26:57.797Z,35.4
2023-05-01T13:27:57.795Z,34.8
2023-05-01T13:28:57.789Z,34.9
2023-05-01T13:29:58.101Z,35.9
2023-05-01T13:30:57.789Z,34.3
2023-05-01T13:31:57.859Z,35.6
2023-05-01T13:32:57.830Z,35
2023-05-01T13:33:57.812Z,34.4
2023-05-01T13:34:57.805Z,34.7
2023-05-01T13:35:57.813Z,34.5
2023-05-01T13:36:57.803Z,34.1
2023-05-01T13:37:57.818Z,35
2023-05-01T13:38:57.788Z,35.7
2023-05-01T13:39:58.078Z,37.1
2023-05-01T13:40:57.816Z,34.5